Impacts TAF Board INFO
FOR SITUATIONAL AWARENESS. NOT TO BE USED FOR FLIGHT PLANNING PURPOSES.
IDs:

KSLC - Salt Lake City Intl, UT, US

Issued at 2105 UTC 12 Dec 2017
Updated at 2134 UTC 12 Dec 2017
Potential Impact None Slight Moderate High
Time<<13/10Z 13/11Z 13/12Z 13/13Z 13/14Z 13/15Z 13/16Z 13/17Z 13/18Z 13/19Z 13/20Z 13/21Z 13/22Z>>
Type PRVL PRVL PRVL PRVL PRVL PRVL PRVL PRVL PRVL PRVL PRVL PRVL PRVL
VIS 0.25 0.25 0.25 0.25 0.25 0.25 0.25 1 1 1 1 1 1
CIG 4 4 4 4 4 4 4 6 6 6 6 6 6
Cover OVC OVC OVC OVC OVC OVC OVC OVC OVC OVC OVC OVC OVC
FltCat LIFR LIFR LIFR LIFR LIFR LIFR LIFR IFR IFR IFR IFR IFR IFR
WX -SN FZFG -SN FZFG -SN FZFG -SN FZFG -SN FZFG -SN FZFG -SN FZFG BR BR BR BR BR BR
WDir 130 130 130 130 130 130 130 320 320 320 320 320 320
WSpd 4 4 4 4 4 4 4 4 4 4 4 4 4
WGst -- -- -- -- -- -- -- -- -- -- -- -- --

Raw TAF
KSLC 122105Z 1221/1324 34005KT 1SM BR BCFG OVC005
  FM122300 35003KT 1/2SM FG OVC003
  FM130000 35004KT 1/4SM FZFG VV002
  FM130800 13004KT 1/4SM -SN FZFG OVC004
  FM131700 32004KT 1SM BR OVC006


METAR Board
Radar Display
Forecast Discussion

FOR SITUATIONAL AWARENESS. NOT TO BE USED FOR FLIGHT PLANNING PURPOSES.